Prescott, AZ

5:32 AM MST on September 05, 2015 (GMT -0700)
Prescott Heights | | Change Station
CLOSE
Current Station
Personal Weather Station
Location: Prescott, AZ
Elevation: 5305 ft
Nearby Weather Stations

Elev 5305 ft 34.55 °N, 112.47 °W | Updated 13 seconds ago

Partly Cloudy
Partly Cloudy
59.2 °F
Feels Like 59.2 °F
N
0.0
Wind Variable Wind from WSW
Gusts 3.0 mph

Today
High -- | Low -- °F
--% Chance of Precip.
Yesterday
High -- | Low -- °F
Precip. -- in
6:05 AM 6:50 PM
Waning Gibbous, 49% visible
Pressure 29.86 in
Visibility 10.0 miles
Clouds Few 3600 ft
Scattered Clouds 4300 ft
Mostly Cloudy 5000 ft
Dew Point 50 °F
Humidity 72%
Rainfall 0.00 in
Snow Depth Not available.
UV 0 out of 12
Pollen 3.90 out of 12
Air Quality Not available.
Flu Activity Not available.
METAR KPRC 051153Z AUTO 12004KT 10SM FEW036 SCT043 BKN050 17/12 A3009 RMK AO2 SLP111 T01720122 10200 20167 50002 $
Pressure 29.86 in
Visibility 10.0 miles
Clouds Few 3600 ft
Scattered Clouds 4300 ft
Mostly Cloudy 5000 ft
Dew Point 50 °F
Humidity 72%
Rainfall 0.00 in
Snow Depth Not available.
UV 0 out of 12
Pollen 3.90 out of 12
Air Quality Not available.
Flu Activity Not available.
METAR KPRC 051153Z AUTO 12004KT 10SM FEW036 SCT043 BKN050 17/12 A3009 RMK AO2 SLP111 T01720122 10200 20167 50002 $

10-Day Weather Forecast

×

Almanac

Astronomy

Sep. 05, 2015 Rise Set
Actual Time
Civil Twilight
Nautical Twilight
Astronomical Twilight
Moon
Length of Visible Light
Length of Day
Tomorrow will be .
, % of the Moon is Illuminated

Today's Extremes

State Highs State Lows

Community

WunderPhotos

Upload Photos

1,852,454 photos uploaded!

WunderBlogs® & News

Nearby

Air Quality

  Air Quality AQ Index Pollutant
Not available.

Snow Depth

Station Depth Elevation

Earthquake Activity

City Distance Mag. Time & Date
Minimum magnitude displayed is 2.5.

Coastal Water Temperatures

Place Temperature

Stations

Nearby Weather Stations

Station Location Temp. Windchill Dew Point Humidity Wind Precip. Elev Updated Type